createdAt,value
2023-03-16T00:01:48.742Z,38.26
2023-03-16T00:04:15.920Z,38.40
2023-03-16T00:06:42.984Z,38.17
2023-03-16T00:09:10.187Z,38.47
2023-03-16T00:11:37.284Z,38.19
2023-03-16T00:14:04.487Z,38.28
2023-03-16T00:16:32.163Z,38.19
2023-03-16T00:18:59.369Z,38.24
2023-03-16T00:21:26.431Z,38.26
2023-03-16T00:23:53.535Z,38.21
2023-03-16T00:26:20.624Z,38.41
2023-03-16T00:28:47.718Z,38.25
2023-03-16T00:31:14.969Z,38.17
2023-03-16T00:33:45.320Z,38.22
2023-03-16T00:36:12.558Z,38.28
2023-03-16T00:38:39.712Z,38.07
2023-03-16T00:41:06.799Z,38.16
2023-03-16T00:43:40.846Z,38.34
2023-03-16T00:46:08.134Z,38.10
2023-03-16T00:48:35.218Z,38.21
2023-03-16T00:51:02.891Z,38.14
2023-03-16T00:53:29.964Z,38.19
2023-03-16T00:55:57.029Z,38.04
2023-03-16T00:58:24.654Z,37.92
2023-03-16T01:00:54.250Z,38.08
2023-03-16T01:03:21.410Z,38.14
2023-03-16T01:05:48.899Z,38.22
2023-03-16T01:11:03.572Z,38.15
2023-03-16T01:13:30.770Z,38.10
2023-03-16T01:15:57.842Z,38.15
2023-03-16T01:18:25.261Z,38.12
2023-03-16T01:20:52.322Z,37.79
2023-03-16T01:23:19.390Z,38.02
2023-03-16T01:25:53.049Z,38.09
2023-03-16T01:28:20.565Z,37.94
2023-03-16T01:30:47.722Z,38.08
2023-03-16T01:33:14.856Z,38.08
2023-03-16T01:35:41.943Z,38.16
2023-03-16T01:38:09.226Z,37.98
2023-03-16T01:40:37.969Z,37.81
2023-03-16T01:43:05.196Z,38.01
2023-03-16T01:45:32.721Z,38.19
2023-03-16T01:47:59.792Z,37.90
2023-03-16T01:50:27.644Z,37.93
2023-03-16T01:52:54.810Z,37.81
2023-03-16T01:58:09.638Z,37.84
2023-03-16T02:00:36.742Z,38.01
2023-03-16T02:03:03.877Z,38.04
2023-03-16T02:05:30.961Z,37.99
2023-03-16T02:07:58.716Z,38.13
2023-03-16T02:13:13.093Z,37.77
2023-03-16T02:15:40.239Z,37.82
2023-03-16T02:18:07.897Z,38.09
2023-03-16T02:20:34.976Z,37.88
2023-03-16T02:23:02.532Z,37.87
2023-03-16T02:25:29.610Z,37.61
2023-03-16T02:27:56.667Z,37.62
2023-03-16T02:33:11.088Z,37.88
2023-03-16T02:35:38.338Z,37.92
2023-03-16T02:38:05.457Z,37.79
2023-03-16T02:40:32.557Z,37.84
2023-03-16T02:42:59.646Z,37.81
2023-03-16T02:45:26.770Z,37.78
2023-03-16T02:47:53.841Z,37.65
2023-03-16T02:50:20.966Z,37.65
2023-03-16T02:52:48.597Z,37.78
2023-03-16T02:55:15.937Z,37.77
2023-03-16T02:57:43.042Z,37.63
2023-03-16T03:00:14.589Z,37.76
2023-03-16T03:02:41.930Z,37.82
2023-03-16T03:05:09.122Z,37.70
2023-03-16T03:07:37.240Z,37.68
2023-03-16T03:10:05.974Z,37.69
2023-03-16T03:12:33.088Z,37.67
2023-03-16T03:15:00.209Z,37.62
2023-03-16T03:17:30.264Z,37.74
2023-03-16T03:19:57.585Z,37.92
2023-03-16T03:22:24.652Z,37.85
2023-03-16T03:24:51.727Z,37.84
2023-03-16T03:27:19.544Z,37.52
2023-03-16T03:29:46.618Z,37.66
2023-03-16T03:32:13.706Z,37.80
2023-03-16T03:34:42.525Z,37.77
2023-03-16T03:37:09.662Z,37.48
2023-03-16T03:39:36.780Z,37.74
2023-03-16T03:42:03.890Z,37.61
2023-03-16T03:44:34.654Z,37.46
2023-03-16T03:47:01.950Z,37.44
2023-03-16T03:49:29.104Z,37.72
2023-03-16T03:51:56.681Z,37.66
2023-03-16T03:57:11.027Z,37.45
2023-03-16T03:59:43.540Z,37.52
2023-03-16T04:02:10.772Z,37.59
2023-03-16T04:04:38.081Z,37.70
2023-03-16T04:07:05.206Z,37.57
2023-03-16T04:09:36.527Z,37.75
2023-03-16T04:12:03.645Z,37.45
2023-03-16T04:14:30.762Z,37.65
2023-03-16T04:16:58.334Z,37.51
2023-03-16T04:22:13.309Z,37.32
2023-03-16T04:24:40.464Z,37.63
2023-03-16T04:27:07.540Z,37.36
2023-03-16T04:29:34.616Z,37.52
2023-03-16T04:32:01.682Z,37.63
2023-03-16T04:34:28.773Z,37.43
2023-03-16T04:36:55.863Z,37.65
2023-03-16T04:39:23.089Z,37.44
2023-03-16T04:41:50.169Z,37.41
2023-03-16T04:44:17.761Z,37.29
2023-03-16T04:46:44.910Z,37.42
2023-03-16T04:49:12.065Z,37.61
2023-03-16T04:51:40.717Z,37.44
2023-03-16T04:54:07.871Z,37.68
2023-03-16T04:56:35.073Z,37.60
2023-03-16T04:59:02.168Z,37.40
2023-03-16T05:01:29.347Z,37.68
2023-03-16T05:03:58.629Z,37.40
2023-03-16T05:09:13.983Z,37.43
2023-03-16T05:11:41.121Z,37.47
2023-03-16T05:14:08.189Z,37.34
2023-03-16T05:16:35.266Z,37.35
2023-03-16T05:19:02.354Z,37.44
2023-03-16T05:21:32.124Z,37.40
2023-03-16T05:23:59.286Z,37.42
2023-03-16T05:26:26.375Z,37.38
2023-03-16T05:28:53.497Z,37.38
2023-03-16T05:34:07.545Z,37.27
2023-03-16T05:36:36.260Z,37.40
2023-03-16T05:39:03.487Z,37.24
2023-03-16T05:41:30.595Z,37.47
2023-03-16T05:43:57.685Z,37.52
2023-03-16T05:46:24.826Z,37.40
2023-03-16T05:48:51.946Z,37.34
2023-03-16T05:51:19.022Z,37.28
2023-03-16T05:53:46.653Z,37.37
2023-03-16T05:56:13.829Z,37.25
2023-03-16T05:58:42.279Z,37.44
2023-03-16T06:01:11.145Z,37.40
2023-03-16T06:03:38.300Z,37.40
2023-03-16T06:06:05.407Z,37.21
2023-03-16T06:08:32.486Z,37.38
2023-03-16T06:10:59.575Z,37.30
2023-03-16T06:13:26.905Z,37.00
2023-03-16T06:15:54.099Z,37.19
2023-03-16T06:18:21.422Z,37.22
2023-03-16T06:20:48.664Z,36.93
2023-03-16T06:23:15.924Z,37.19
2023-03-16T06:25:43.904Z,36.75
2023-03-16T06:28:11.133Z,36.84
2023-03-16T06:30:38.411Z,36.83
2023-03-16T06:33:06.574Z,36.94
2023-03-16T06:35:34.239Z,36.76
2023-03-16T06:38:01.485Z,37.00
2023-03-16T06:40:28.954Z,36.57
2023-03-16T06:42:59.008Z,36.72
2023-03-16T06:51:00.138Z,36.88
2023-03-16T06:53:27.259Z,36.80
2023-03-16T06:55:54.384Z,36.76
2023-03-16T07:01:08.506Z,36.75
2023-03-16T07:03:35.618Z,36.35
2023-03-16T07:06:03.196Z,36.61
2023-03-16T07:08:30.470Z,36.56
2023-03-16T07:10:57.572Z,36.49
2023-03-16T07:13:27.542Z,36.67
2023-03-16T07:15:54.752Z,36.50
2023-03-16T07:18:21.895Z,36.40
2023-03-16T07:20:49.004Z,36.59
2023-03-16T07:23:16.128Z,36.33
2023-03-16T07:25:44.732Z,36.39
2023-03-16T07:28:11.890Z,36.54
2023-03-16T07:30:38.966Z,36.14
2023-03-16T07:35:53.764Z,36.37
2023-03-16T07:38:21.931Z,36.35
2023-03-16T07:40:49.102Z,36.11
2023-03-16T07:43:16.242Z,36.12
2023-03-16T07:45:44.107Z,36.19
2023-03-16T07:48:11.202Z,36.04
2023-03-16T07:50:38.336Z,36.23
2023-03-16T07:53:05.467Z,36.06
2023-03-16T07:55:32.542Z,36.27
2023-03-16T07:57:59.637Z,36.32
2023-03-16T08:03:14.024Z,36.45
2023-03-16T08:05:41.688Z,36.13
2023-03-16T08:08:09.747Z,36.09
2023-03-16T08:10:37.353Z,36.21
2023-03-16T08:13:07.303Z,36.34
2023-03-16T08:15:35.091Z,36.31
2023-03-16T08:18:07.240Z,36.37
2023-03-16T08:20:34.385Z,36.47
2023-03-16T08:23:01.668Z,36.33
2023-03-16T08:25:28.755Z,36.24
2023-03-16T08:27:58.091Z,36.15
2023-03-16T08:33:13.852Z,36.21
2023-03-16T08:35:40.952Z,36.25
2023-03-16T08:38:09.165Z,36.35
2023-03-16T08:40:36.386Z,36.26
2023-03-16T08:43:04.116Z,36.02
2023-03-16T08:45:31.391Z,36.07
2023-03-16T08:47:58.790Z,36.31
2023-03-16T08:50:26.014Z,36.23
2023-03-16T08:52:53.645Z,36.34
2023-03-16T08:55:20.786Z,36.36
2023-03-16T08:57:48.788Z,36.38
2023-03-16T09:00:16.055Z,36.04
2023-03-16T09:02:43.184Z,36.11
2023-03-16T09:05:11.224Z,36.20
2023-03-16T09:07:39.390Z,36.11
2023-03-16T09:10:06.770Z,36.11
2023-03-16T09:12:33.847Z,36.48
2023-03-16T09:15:01.054Z,36.36
2023-03-16T09:17:28.631Z,36.26
2023-03-16T09:20:03.311Z,36.27
2023-03-16T09:22:38.778Z,36.25
2023-03-16T09:25:06.750Z,36.17
2023-03-16T09:27:33.846Z,36.33
2023-03-16T09:30:02.593Z,36.20
2023-03-16T09:32:30.664Z,36.27
2023-03-16T09:34:58.023Z,36.10
2023-03-16T09:37:26.174Z,36.37
2023-03-16T09:39:57.948Z,36.02
2023-03-16T09:42:27.604Z,35.98
2023-03-16T09:44:54.712Z,35.94
2023-03-16T09:47:22.967Z,36.09
2023-03-16T09:49:50.051Z,36.04
2023-03-16T09:52:17.141Z,35.93
2023-03-16T09:54:44.493Z,35.86
2023-03-16T09:57:11.544Z,36.00
2023-03-16T09:59:39.045Z,35.83
2023-03-16T10:02:06.118Z,35.98
2023-03-16T10:04:33.626Z,36.11
2023-03-16T10:07:02.799Z,35.98
2023-03-16T10:09:29.949Z,35.92
2023-03-16T10:11:57.475Z,35.91
2023-03-16T10:14:24.732Z,35.74
2023-03-16T10:16:52.656Z,35.94
2023-03-16T10:19:19.810Z,35.84
2023-03-16T10:21:46.874Z,35.91
2023-03-16T10:24:13.953Z,35.66
2023-03-16T10:26:41.074Z,35.67
2023-03-16T10:29:08.143Z,35.72
2023-03-16T10:31:35.487Z,35.71
2023-03-16T10:34:02.824Z,35.81
2023-03-16T10:36:30.166Z,35.43
2023-03-16T10:38:58.185Z,35.87
2023-03-16T10:41:26.038Z,35.77
2023-03-16T10:43:53.285Z,35.91
2023-03-16T10:46:20.488Z,35.73
2023-03-16T10:48:47.756Z,35.75
2023-03-16T10:51:14.861Z,35.98
2023-03-16T10:53:42.629Z,35.88
2023-03-16T10:56:12.128Z,35.73
2023-03-16T10:58:39.213Z,35.73
2023-03-16T11:01:06.368Z,35.56
2023-03-16T11:03:33.658Z,35.71
2023-03-16T11:06:00.835Z,35.92
2023-03-16T11:08:27.954Z,35.93
2023-03-16T11:10:56.235Z,35.65
2023-03-16T11:13:24.700Z,35.52
2023-03-16T11:15:51.880Z,35.69
2023-03-16T11:18:20.290Z,35.44
2023-03-16T11:20:47.362Z,35.49
2023-03-16T11:23:14.458Z,35.52
2023-03-16T11:25:41.539Z,35.60
2023-03-16T11:28:11.993Z,35.75
2023-03-16T11:30:39.197Z,35.59
2023-03-16T11:33:06.374Z,35.52
2023-03-16T11:35:34.117Z,35.62
2023-03-16T11:38:01.199Z,35.42
2023-03-16T11:40:29.159Z,35.39
2023-03-16T11:42:56.306Z,35.52
2023-03-16T11:45:23.450Z,35.29
2023-03-16T11:47:50.530Z,35.50
2023-03-16T11:50:17.761Z,35.15
2023-03-16T11:52:46.321Z,35.22
2023-03-16T11:55:13.960Z,35.21
2023-03-16T11:57:41.578Z,35.30
2023-03-16T12:00:09.419Z,35.14
2023-03-16T12:02:37.272Z,35.06
2023-03-16T12:05:04.515Z,34.96
2023-03-16T12:10:18.851Z,35.20
2023-03-16T12:12:47.196Z,34.97
2023-03-16T12:15:14.550Z,35.03
2023-03-16T12:17:41.693Z,34.98
2023-03-16T12:20:10.661Z,34.96
2023-03-16T12:22:37.734Z,34.96
2023-03-16T12:25:05.586Z,34.89
2023-03-16T12:27:32.780Z,35.16
2023-03-16T12:30:00.214Z,35.17
2023-03-16T12:35:14.483Z,34.72
2023-03-16T12:37:41.686Z,34.90
2023-03-16T12:40:09.318Z,34.79
2023-03-16T12:42:36.641Z,34.74
2023-03-16T12:45:03.759Z,34.83
2023-03-16T12:47:31.371Z,34.96
2023-03-16T12:49:58.459Z,34.98
2023-03-16T12:52:25.536Z,34.86
2023-03-16T12:54:52.609Z,35.03
2023-03-16T12:57:19.670Z,35.18
2023-03-16T12:59:46.896Z,35.00
2023-03-16T13:02:13.976Z,34.80
2023-03-16T13:04:41.687Z,34.67
2023-03-16T13:07:09.197Z,34.76
2023-03-16T13:09:37.197Z,34.90
2023-03-16T13:12:06.617Z,34.73
2023-03-16T13:14:33.938Z,34.90
2023-03-16T13:17:03.191Z,34.77
2023-03-16T13:22:19.510Z,35.94
2023-03-16T13:24:46.666Z,36.32
2023-03-16T13:27:13.727Z,35.82
2023-03-16T13:29:41.571Z,35.98
2023-03-16T13:32:08.770Z,35.39
2023-03-16T13:34:35.920Z,35.55
2023-03-16T13:37:03.889Z,35.75
2023-03-16T13:39:30.998Z,35.43
2023-03-16T13:41:59.608Z,35.68
2023-03-16T13:47:13.853Z,35.64
2023-03-16T13:49:40.913Z,35.69
2023-03-16T13:52:09.466Z,35.64
2023-03-16T13:54:37.276Z,35.35
2023-03-16T13:57:07.017Z,35.54
2023-03-16T13:59:34.107Z,35.42
2023-03-16T14:02:01.966Z,35.06
2023-03-16T14:04:29.781Z,35.02
2023-03-16T14:06:57.064Z,35.01
2023-03-16T14:12:12.639Z,34.97
2023-03-16T14:14:39.751Z,35.38
2023-03-16T14:17:06.814Z,35.13
2023-03-16T14:19:38.091Z,35.66
2023-03-16T14:22:05.412Z,35.35
2023-03-16T14:24:33.826Z,35.29
2023-03-16T14:27:01.352Z,35.31
2023-03-16T14:29:28.547Z,35.56
2023-03-16T14:31:55.724Z,35.89
2023-03-16T14:34:22.990Z,35.59
2023-03-16T14:36:50.088Z,35.57
2023-03-16T14:39:17.302Z,35.27
2023-03-16T14:41:45.338Z,35.50
2023-03-16T14:44:12.516Z,35.27
2023-03-16T14:46:42.482Z,35.54
2023-03-16T14:49:10.352Z,35.58
2023-03-16T14:51:37.416Z,35.25
2023-03-16T14:54:04.510Z,35.57
2023-03-16T14:56:32.519Z,35.61
2023-03-16T14:59:00.580Z,35.79
2023-03-16T15:01:27.730Z,35.79
2023-03-16T15:03:54.916Z,35.39
2023-03-16T15:06:22.376Z,35.24
2023-03-16T15:08:50.921Z,34.90
2023-03-16T15:11:21.442Z,35.42
2023-03-16T15:13:48.595Z,35.52
2023-03-16T15:16:15.826Z,35.57
2023-03-16T15:18:42.945Z,35.60
2023-03-16T15:21:10.157Z,35.21
2023-03-16T15:23:37.326Z,35.19
2023-03-16T15:26:07.403Z,34.94
2023-03-16T15:28:34.600Z,35.42
2023-03-16T15:31:01.940Z,35.66
2023-03-16T15:33:29.081Z,35.67
2023-03-16T15:35:56.236Z,35.94
2023-03-16T15:38:23.398Z,35.92
2023-03-16T15:40:51.322Z,36.25
2023-03-16T15:43:18.573Z,35.33
2023-03-16T15:45:46.089Z,35.47
2023-03-16T15:48:13.166Z,35.63
2023-03-16T15:50:40.899Z,35.60
2023-03-16T15:53:09.037Z,35.69
2023-03-16T15:55:36.165Z,35.57
2023-03-16T15:58:03.683Z,35.56
2023-03-16T16:03:18.082Z,35.91
2023-03-16T16:05:45.685Z,35.53
2023-03-16T16:08:12.744Z,35.82
2023-03-16T16:10:39.809Z,35.64
2023-03-16T16:13:07.204Z,35.22
2023-03-16T16:15:35.592Z,35.00
2023-03-16T16:18:20.779Z,35.28
2023-03-16T16:20:48.608Z,35.49
2023-03-16T16:23:15.733Z,35.60
2023-03-16T16:25:42.858Z,35.51
2023-03-16T16:28:09.928Z,35.32
2023-03-16T16:30:37.715Z,35.59
2023-03-16T16:33:04.837Z,35.84
2023-03-16T16:35:32.862Z,35.71
2023-03-16T16:38:00.760Z,36.01
2023-03-16T16:40:28.314Z,36.00
2023-03-16T16:42:55.414Z,36.02
2023-03-16T16:45:22.549Z,35.85
2023-03-16T16:47:52.172Z,35.54
2023-03-16T16:50:19.464Z,35.68
2023-03-16T16:52:47.085Z,35.63
2023-03-16T16:55:14.196Z,35.99
2023-03-16T17:00:29.279Z,36.18
2023-03-16T17:02:58.235Z,35.90
2023-03-16T17:05:25.744Z,35.98
2023-03-16T17:07:52.895Z,35.99
2023-03-16T17:10:20.394Z,36.05
2023-03-16T17:12:47.534Z,36.04
2023-03-16T17:15:14.600Z,35.93
2023-03-16T17:17:41.992Z,35.86
2023-03-16T17:20:09.990Z,35.99
2023-03-16T17:22:37.061Z,35.98
2023-03-16T17:25:04.715Z,35.81
2023-03-16T17:27:33.054Z,35.57
2023-03-16T17:30:00.231Z,35.55
2023-03-16T17:32:27.433Z,35.46
2023-03-16T17:34:54.638Z,35.67
2023-03-16T17:37:22.116Z,35.79
2023-03-16T17:39:49.275Z,36.20
2023-03-16T17:42:17.972Z,36.12
2023-03-16T17:44:45.061Z,35.93
2023-03-16T17:47:12.115Z,36.01
2023-03-16T17:52:27.724Z,35.83
2023-03-16T17:54:54.939Z,35.94
2023-03-16T17:57:22.203Z,36.14
2023-03-16T17:59:49.265Z,35.92
2023-03-16T18:02:16.323Z,36.00
2023-03-16T18:04:43.406Z,35.99
2023-03-16T18:07:10.495Z,36.00
2023-03-16T18:09:37.637Z,35.98
2023-03-16T18:12:04.774Z,35.63
2023-03-16T18:14:35.185Z,35.71
2023-03-16T18:17:02.412Z,35.33
2023-03-16T18:19:29.975Z,35.64
2023-03-16T18:21:57.401Z,35.19
2023-03-16T18:24:26.800Z,35.51
2023-03-16T18:26:53.917Z,35.62
2023-03-16T18:29:22.374Z,35.89
2023-03-16T18:31:49.739Z,35.74
2023-03-16T18:34:17.349Z,35.88
2023-03-16T18:36:45.757Z,36.00
2023-03-16T18:39:12.914Z,35.97
2023-03-16T18:44:27.059Z,36.11
2023-03-16T18:46:54.223Z,36.11
2023-03-16T18:49:22.728Z,36.44
2023-03-16T18:51:49.794Z,35.64
2023-03-16T18:54:16.907Z,35.61
2023-03-16T18:56:44.021Z,35.81
2023-03-16T18:59:12.526Z,35.94
2023-03-16T19:04:26.638Z,35.80
2023-03-16T19:06:54.087Z,35.62
2023-03-16T19:09:21.410Z,35.78
2023-03-16T19:11:48.548Z,35.80
2023-03-16T19:14:15.966Z,35.88
2023-03-16T19:16:43.771Z,36.67
2023-03-16T19:19:10.902Z,36.52
2023-03-16T19:24:25.369Z,36.71
2023-03-16T19:26:52.438Z,36.95
2023-03-16T19:29:19.497Z,37.12
2023-03-16T19:31:46.600Z,37.54
2023-03-16T19:34:13.679Z,36.98
2023-03-16T19:36:41.784Z,37.00
2023-03-16T19:39:09.289Z,36.47
2023-03-16T19:41:36.383Z,36.51
2023-03-16T19:44:04.022Z,36.73
2023-03-16T19:46:31.186Z,36.64
2023-03-16T19:48:58.259Z,36.54
2023-03-16T19:51:26.596Z,36.52
2023-03-16T19:53:53.716Z,36.87
2023-03-16T19:56:20.798Z,36.64
2023-03-16T19:58:47.994Z,36.25
2023-03-16T20:01:16.591Z,36.36
2023-03-16T20:03:43.767Z,36.15
2023-03-16T20:06:11.036Z,36.29
2023-03-16T20:08:38.144Z,36.15
2023-03-16T20:11:05.768Z,35.98
2023-03-16T20:13:32.813Z,36.20
2023-03-16T20:16:00.105Z,36.02
2023-03-16T20:18:28.808Z,36.09
2023-03-16T20:20:55.879Z,36.53
2023-03-16T20:23:23.051Z,36.65
2023-03-16T20:25:51.040Z,36.39
2023-03-16T20:28:18.587Z,36.43
2023-03-16T20:30:45.707Z,36.41
2023-03-16T20:33:12.827Z,36.35
2023-03-16T20:35:39.913Z,36.44
2023-03-16T20:38:07.451Z,36.38
2023-03-16T20:40:34.535Z,36.47
2023-03-16T20:43:01.796Z,36.19
2023-03-16T20:45:29.319Z,36.13
2023-03-16T20:47:56.803Z,36.39
2023-03-16T20:50:24.214Z,36.05
2023-03-16T20:52:51.617Z,36.47
2023-03-16T20:55:19.808Z,36.36
2023-03-16T20:57:47.636Z,36.25
2023-03-16T21:00:14.844Z,36.32
2023-03-16T21:05:29.887Z,36.12
2023-03-16T21:07:57.386Z,36.14
2023-03-16T21:10:24.511Z,36.20
2023-03-16T21:12:51.669Z,36.05
2023-03-16T21:15:19.471Z,36.23
2023-03-16T21:17:46.705Z,36.23
2023-03-16T21:20:13.834Z,36.03
2023-03-16T21:22:40.903Z,36.11
2023-03-16T21:25:07.973Z,36.24
2023-03-16T21:27:35.151Z,36.29
2023-03-16T21:30:02.218Z,36.34
2023-03-16T21:32:30.891Z,36.13
2023-03-16T21:34:58.056Z,36.41
2023-03-16T21:37:25.148Z,36.39
2023-03-16T21:39:52.267Z,36.65
2023-03-16T21:42:19.558Z,36.34
2023-03-16T21:44:46.629Z,36.47
2023-03-16T21:47:13.773Z,36.51
2023-03-16T21:52:28.522Z,36.51
2023-03-16T21:54:55.685Z,36.44
2023-03-16T21:57:22.977Z,36.43
2023-03-16T22:02:37.696Z,36.32
2023-03-16T22:05:04.854Z,36.36
2023-03-16T22:07:31.917Z,36.65
2023-03-16T22:09:58.983Z,36.39
2023-03-16T22:12:26.137Z,36.41
2023-03-16T22:14:53.267Z,36.25
2023-03-16T22:17:20.330Z,36.41
2023-03-16T22:19:47.822Z,36.54
2023-03-16T22:22:14.937Z,36.41
2023-03-16T22:24:42.008Z,36.66
2023-03-16T22:27:09.082Z,36.66
2023-03-16T22:29:36.589Z,36.62
2023-03-16T22:32:04.459Z,36.58
2023-03-16T22:34:32.303Z,36.49
2023-03-16T22:36:59.423Z,36.40
2023-03-16T22:39:26.485Z,36.58
2023-03-16T22:41:53.567Z,36.53
2023-03-16T22:44:22.493Z,36.29
2023-03-16T22:46:49.788Z,36.64
2023-03-16T22:49:16.905Z,36.43
2023-03-16T22:51:43.977Z,36.55
2023-03-16T22:54:11.049Z,36.43
2023-03-16T22:56:38.151Z,36.17
2023-03-16T22:59:05.815Z,36.16
2023-03-16T23:01:33.597Z,36.53
2023-03-16T23:04:00.796Z,36.21
2023-03-16T23:06:27.925Z,36.22
2023-03-16T23:08:54.986Z,36.20
2023-03-16T23:11:22.375Z,36.43
2023-03-16T23:13:49.773Z,36.21
2023-03-16T23:16:16.972Z,36.11
2023-03-16T23:18:44.071Z,36.21
2023-03-16T23:21:11.133Z,36.16
2023-03-16T23:23:38.346Z,36.31
2023-03-16T23:26:05.404Z,36.27
2023-03-16T23:28:32.474Z,36.45
2023-03-16T23:30:59.572Z,36.27
2023-03-16T23:33:27.104Z,36.59
2023-03-16T23:35:54.240Z,36.27
2023-03-16T23:38:21.815Z,36.48
2023-03-16T23:40:49.744Z,36.26
2023-03-16T23:43:17.184Z,36.21
2023-03-16T23:45:44.305Z,36.29
2023-03-16T23:48:11.431Z,36.34
2023-03-16T23:50:38.520Z,36.15
2023-03-16T23:53:06.230Z,36.18
2023-03-16T23:55:33.311Z,36.20
2023-03-16T23:58:00.497Z,36.44
